Time;durP1;ratioP1;P1;durP2;ratioP2;P2;SDS_P1;SDS_P2;PMS_P1;PMS_P2;Temp;Humidity;BMP_temperature;BMP_pressure;BME280_temperature;BME280_humidity;BME280_pressure;Samples;Min_cycle;Max_cycle;Signal;HPM_P1;HPM_P2
2021/12/12 00:01:12;0.00;0.00;0.62;0.00;0.00;0.62;3.10;2.23;;;21.30;25.80;;;;;;2265314;61;20458;-60
2021/12/12 00:04:10;0.00;0.00;0.62;0.00;0.00;0.62;3.87;2.20;;;21.30;25.80;;;;;;2265368;61;20353;-62
2021/12/12 00:07:00;0.00;0.00;0.62;0.00;0.00;0.62;2.23;1.80;;;21.30;25.80;;;;;;2265837;61;20757;-61
2021/12/12 00:09:48;0.00;0.00;0.62;0.00;0.00;0.62;3.10;1.40;;;21.30;25.90;;;;;;2265092;61;20431;-62
2021/12/12 00:12:40;0.00;0.00;0.62;0.00;0.00;0.62;2.93;1.90;;;21.30;25.90;;;;;;2265166;61;20392;-62
2021/12/12 00:15:26;0.00;0.00;0.62;0.00;0.00;0.62;2.27;2.07;;;21.30;25.90;;;;;;2265578;61;20353;-60
2021/12/12 00:18:11;0.00;0.00;0.62;0.00;0.00;0.62;2.90;2.20;;;21.30;25.90;;;;;;2250294;61;1131248;-62
2021/12/12 00:20:56;0.00;0.00;0.62;0.00;0.00;0.62;2.73;1.60;;;21.30;25.90;;;;;;2265928;61;20248;-62
2021/12/12 00:23:41;0.00;0.00;0.62;0.00;0.00;0.62;2.37;2.00;;;21.30;25.90;;;;;;2265184;61;20357;-62
2021/12/12 00:26:27;0.00;0.00;0.62;0.00;0.00;0.62;2.23;1.77;;;21.30;25.90;;;;;;2267718;61;20779;-62
2021/12/12 00:29:15;0.00;0.00;0.62;0.00;0.00;0.62;3.40;1.87;;;21.30;25.90;;;;;;2265924;61;20396;-61
2021/12/12 00:32:06;0.00;0.00;0.62;0.00;0.00;0.62;2.50;1.70;;;21.30;25.90;;;;;;2264856;61;20631;-61
2021/12/12 00:34:57;0.00;0.00;0.62;0.00;0.00;0.62;2.60;2.10;;;21.30;25.90;;;;;;2265563;61;20357;-61
2021/12/12 00:37:42;0.00;0.00;0.62;0.00;0.00;0.62;2.43;1.87;;;21.30;26.00;;;;;;2265724;61;20603;-62
2021/12/12 00:40:32;0.00;0.00;0.62;0.00;0.00;0.62;2.70;2.00;;;21.30;26.00;;;;;;2265247;61;20769;-60
2021/12/12 00:43:24;0.00;0.00;0.62;0.00;0.00;0.62;2.90;2.20;;;21.30;26.00;;;;;;2265958;61;20588;-62
2021/12/12 00:46:11;0.00;0.00;0.62;0.00;0.00;0.62;2.53;2.07;;;21.30;26.00;;;;;;2264899;61;20589;-61
2021/12/12 00:48:58;0.00;0.00;0.62;0.00;0.00;0.62;2.50;1.63;;;21.30;26.00;;;;;;2265500;61;20361;-61
2021/12/12 00:51:45;0.00;0.00;0.62;0.00;0.00;0.62;2.20;1.87;;;21.30;26.00;;;;;;2265892;61;20389;-61
2021/12/12 00:54:32;0.00;0.00;0.62;0.00;0.00;0.62;2.83;2.03;;;21.30;26.00;;;;;;2265390;61;20356;-62
2021/12/12 00:57:21;0.00;0.00;0.62;0.00;0.00;0.62;2.83;1.87;;;21.30;26.00;;;;;;2265560;61;20408;-61
2021/12/12 01:00:09;0.00;0.00;0.62;0.00;0.00;0.62;2.40;1.80;;;21.30;26.00;;;;;;2265375;61;20358;-61
2021/12/12 01:02:56;0.00;0.00;0.62;0.00;0.00;0.62;2.37;1.80;;;21.30;26.00;;;;;;2265528;61;20364;-61
2021/12/12 01:05:46;0.00;0.00;0.62;0.00;0.00;0.62;3.07;2.13;;;21.30;26.00;;;;;;2262847;61;20634;-62
2021/12/12 01:08:30;0.00;0.00;0.62;0.00;0.00;0.62;2.50;2.00;;;21.30;26.00;;;;;;2264830;61;20361;-60
2021/12/12 01:11:20;0.00;0.00;0.62;0.00;0.00;0.62;3.30;2.07;;;21.30;26.00;;;;;;2265381;61;20397;-60
2021/12/12 01:14:10;0.00;0.00;0.62;0.00;0.00;0.62;2.90;1.77;;;21.30;26.00;;;;;;2265923;61;20600;-60
2021/12/12 01:17:00;0.00;0.00;0.62;0.00;0.00;0.62;2.73;1.90;;;21.30;26.00;;;;;;2265472;61;20604;-62
2021/12/12 01:19:51;0.00;0.00;0.62;0.00;0.00;0.62;2.33;2.00;;;21.30;26.00;;;;;;2265464;61;20360;-61
2021/12/12 01:22:39;0.00;0.00;0.62;0.00;0.00;0.62;4.00;2.30;;;21.30;26.00;;;;;;2265125;61;20484;-63
2021/12/12 01:25:27;0.00;0.00;0.62;0.00;0.00;0.62;2.90;2.00;;;21.30;26.00;;;;;;2265397;61;20484;-61
2021/12/12 01:28:15;0.00;0.00;0.62;0.00;0.00;0.62;2.27;1.90;;;21.30;26.00;;;;;;2265704;61;20361;-61
2021/12/12 01:31:07;0.00;0.00;0.62;0.00;0.00;0.62;2.80;2.10;;;21.30;26.00;;;;;;2264949;61;20520;-62
2021/12/12 01:34:08;0.00;0.00;0.62;0.00;0.00;0.62;2.87;1.90;;;21.30;26.00;;;;;;2265301;61;20772;-62
2021/12/12 01:39:47;0.00;0.00;0.62;0.00;0.00;0.62;2.50;1.90;;;21.30;26.10;;;;;;2265459;61;20400;-60
2021/12/12 01:42:39;0.00;0.00;0.62;0.00;0.00;0.62;2.63;2.17;;;21.30;26.10;;;;;;2265802;61;20385;-63
2021/12/12 01:45:28;0.00;0.00;0.62;0.00;0.00;0.62;3.40;2.80;;;21.30;26.10;;;;;;2264981;61;20353;-61
2021/12/12 01:48:19;0.00;0.00;0.62;0.00;0.00;0.62;4.27;3.10;;;21.30;26.00;;;;;;2265154;61;20340;-61
2021/12/12 01:51:08;0.00;0.00;0.62;0.00;0.00;0.62;3.63;2.50;;;21.30;26.00;;;;;;2265527;61;20389;-61
2021/12/12 01:53:57;0.00;0.00;0.62;0.00;0.00;0.62;3.13;2.60;;;21.30;25.90;;;;;;2265404;61;20358;-62
2021/12/12 01:56:53;0.00;0.00;0.62;0.00;0.00;0.62;3.07;2.63;;;21.30;25.90;;;;;;2265476;61;20361;-63
2021/12/12 01:59:38;0.00;0.00;0.62;0.00;0.00;0.62;3.77;2.90;;;21.30;25.90;;;;;;2264979;61;20349;-63
2021/12/12 02:02:28;0.00;0.00;0.62;0.00;0.00;0.62;3.90;2.90;;;21.30;25.90;;;;;;2265113;61;20604;-61
2021/12/12 02:05:18;0.00;0.00;0.62;0.00;0.00;0.62;4.90;3.97;;;21.30;25.80;;;;;;2262603;61;20385;-61
2021/12/12 02:08:07;0.00;0.00;0.62;0.00;0.00;0.62;7.90;4.43;;;21.30;25.80;;;;;;2264907;61;20352;-64
2021/12/12 02:10:57;0.00;0.00;0.62;0.00;0.00;0.62;7.10;4.77;;;21.30;25.70;;;;;;2267469;61;20653;-61
2021/12/12 02:13:49;0.00;0.00;0.62;0.00;0.00;0.62;7.93;5.30;;;21.20;25.60;;;;;;2265430;61;20680;-61
2021/12/12 02:16:36;0.00;0.00;0.62;0.00;0.00;0.62;12.10;6.43;;;21.20;25.60;;;;;;2265205;61;20376;-61
2021/12/12 02:19:29;0.00;0.00;0.62;0.00;0.00;0.62;7.07;5.87;;;21.20;25.50;;;;;;2265437;61;20584;-60
2021/12/12 02:22:35;0.00;0.00;0.62;0.00;0.00;0.62;8.40;5.60;;;21.20;25.50;;;;;;2264904;61;20408;-62
2021/12/12 02:37:44;0.00;0.00;0.62;0.00;0.00;0.62;8.27;6.77;;;21.00;25.30;;;;;;2264838;61;20642;-61
2021/12/12 02:40:33;0.00;0.00;0.62;0.00;0.00;0.62;8.30;7.00;;;21.00;25.40;;;;;;2264963;61;20364;-61
2021/12/12 02:43:20;0.00;0.00;0.62;0.00;0.00;0.62;6.73;5.97;;;20.90;25.30;;;;;;2265398;61;20496;-61
2021/12/12 02:46:07;0.00;0.00;0.62;0.00;0.00;0.62;7.90;6.30;;;20.90;25.30;;;;;;2264960;61;20418;-62
2021/12/12 02:48:53;0.00;0.00;0.62;0.00;0.00;0.62;8.47;6.43;;;20.80;25.20;;;;;;2265259;61;20364;-60
2021/12/12 02:51:41;0.00;0.00;0.62;0.00;0.00;0.62;8.43;6.00;;;20.80;25.20;;;;;;2264599;61;20427;-61
2021/12/12 02:54:28;0.00;0.00;0.62;0.00;0.00;0.62;7.80;6.40;;;20.80;25.20;;;;;;2265042;61;20469;-61
2021/12/12 02:57:16;0.00;0.00;0.62;0.00;0.00;0.62;8.00;6.80;;;20.80;25.20;;;;;;2265880;61;20365;-61
2021/12/12 03:00:02;0.00;0.00;0.62;0.00;0.00;0.62;8.47;6.47;;;20.70;25.20;;;;;;2264647;61;20580;-61
2021/12/12 03:02:49;0.00;0.00;0.62;0.00;0.00;0.62;11.30;7.20;;;20.70;25.10;;;;;;2265121;61;20369;-60
2021/12/12 03:05:41;0.00;0.00;0.62;0.00;0.00;0.62;8.20;6.43;;;20.70;25.10;;;;;;2265302;61;20606;-62
2021/12/12 03:08:26;0.00;0.00;0.62;0.00;0.00;0.62;8.07;6.60;;;20.60;25.00;;;;;;2265001;61;20385;-61
2021/12/12 03:11:12;0.00;0.00;0.62;0.00;0.00;0.62;11.33;7.10;;;20.60;25.00;;;;;;2266019;61;20392;-61
2021/12/12 03:13:56;0.00;0.00;0.62;0.00;0.00;0.62;10.70;7.83;;;20.60;25.00;;;;;;2265422;61;20365;-62
2021/12/12 03:16:41;0.00;0.00;0.62;0.00;0.00;0.62;10.67;7.53;;;20.50;24.90;;;;;;2265561;61;20596;-61
2021/12/12 03:19:26;0.00;0.00;0.62;0.00;0.00;0.62;10.83;7.40;;;20.50;24.80;;;;;;2266224;61;20384;-61
2021/12/12 03:22:11;0.00;0.00;0.62;0.00;0.00;0.62;8.77;7.87;;;20.50;24.70;;;;;;2265379;61;20412;-61
2021/12/12 03:24:56;0.00;0.00;0.62;0.00;0.00;0.62;11.97;7.03;;;20.50;24.70;;;;;;2265617;61;20356;-61
2021/12/12 03:27:42;0.00;0.00;0.62;0.00;0.00;0.62;8.13;6.70;;;20.40;24.60;;;;;;2265792;61;20427;-62
2021/12/12 03:30:28;0.00;0.00;0.62;0.00;0.00;0.62;9.63;7.73;;;20.30;24.60;;;;;;2265324;61;20872;-62
2021/12/12 03:33:12;0.00;0.00;0.62;0.00;0.00;0.62;9.07;7.33;;;20.30;24.50;;;;;;2265939;61;20737;-61
2021/12/12 03:36:00;0.00;0.00;0.62;0.00;0.00;0.62;9.33;7.60;;;20.20;24.50;;;;;;2265488;61;20407;-61
2021/12/12 03:38:50;0.00;0.00;0.62;0.00;0.00;0.62;7.57;6.77;;;20.20;24.50;;;;;;2265462;61;20456;-62
2021/12/12 03:41:36;0.00;0.00;0.62;0.00;0.00;0.62;8.20;7.17;;;20.20;24.40;;;;;;2266052;61;20369;-61
2021/12/12 03:44:26;0.00;0.00;0.62;0.00;0.00;0.62;9.73;7.73;;;20.10;24.30;;;;;;2265411;61;20764;-61
2021/12/12 03:47:19;0.00;0.00;0.62;0.00;0.00;0.62;9.60;7.77;;;20.10;24.30;;;;;;2265522;61;20365;-61
2021/12/12 03:50:11;0.00;0.00;0.62;0.00;0.00;0.62;7.50;6.00;;;20.00;24.30;;;;;;2265638;61;20424;-62
2021/12/12 03:52:55;0.00;0.00;0.62;0.00;0.00;0.62;7.30;6.47;;;20.00;24.30;;;;;;2265678;61;20353;-62
2021/12/12 03:55:42;0.00;0.00;0.62;0.00;0.00;0.62;10.60;7.70;;;19.90;24.30;;;;;;2265993;61;20357;-60
2021/12/12 03:58:27;0.00;0.00;0.62;0.00;0.00;0.62;9.37;6.87;;;19.90;24.30;;;;;;2265122;61;20361;-60
2021/12/12 04:01:21;0.00;0.00;0.62;0.00;0.00;0.62;8.83;6.47;;;19.90;24.30;;;;;;2265548;61;20392;-61
2021/12/12 04:04:11;0.00;0.00;0.62;0.00;0.00;0.62;9.00;6.37;;;19.80;24.30;;;;;;2266090;61;20380;-61
2021/12/12 04:06:58;0.00;0.00;0.62;0.00;0.00;0.62;8.90;6.87;;;19.80;24.30;;;;;;2265470;61;20656;-63
2021/12/12 04:09:43;0.00;0.00;0.62;0.00;0.00;0.62;7.63;6.33;;;19.80;24.30;;;;;;2265512;61;20770;-62
2021/12/12 04:12:28;0.00;0.00;0.62;0.00;0.00;0.62;10.00;6.23;;;19.70;24.30;;;;;;2265585;61;20376;-61
2021/12/12 04:15:12;0.00;0.00;0.62;0.00;0.00;0.62;7.53;5.70;;;19.70;24.30;;;;;;2265733;61;20357;-62
2021/12/12 04:17:59;0.00;0.00;0.62;0.00;0.00;0.62;8.07;6.63;;;19.60;24.20;;;;;;2265870;61;20434;-61
2021/12/12 04:20:44;0.00;0.00;0.62;0.00;0.00;0.62;7.40;5.70;;;19.60;24.30;;;;;;2264955;61;20377;-61
2021/12/12 04:23:28;0.00;0.00;0.62;0.00;0.00;0.62;11.07;6.43;;;19.60;24.30;;;;;;2265452;61;20429;-61
2021/12/12 04:26:20;0.00;0.00;0.62;0.00;0.00;0.62;9.43;6.43;;;19.50;24.30;;;;;;2266009;61;20356;-61
2021/12/12 04:29:09;0.00;0.00;0.62;0.00;0.00;0.62;7.53;6.23;;;19.50;24.30;;;;;;2265378;61;20356;-61
2021/12/12 04:31:57;0.00;0.00;0.62;0.00;0.00;0.62;9.30;6.37;;;19.50;24.30;;;;;;2265570;61;20760;-61
2021/12/12 04:34:47;0.00;0.00;0.62;0.00;0.00;0.62;8.80;6.50;;;19.40;24.10;;;;;;2265582;61;20399;-62
2021/12/12 04:37:32;0.00;0.00;0.62;0.00;0.00;0.62;6.47;4.73;;;19.40;24.10;;;;;;2265407;61;20365;-61
2021/12/12 04:40:22;0.00;0.00;0.62;0.00;0.00;0.62;7.50;5.30;;;19.40;24.10;;;;;;2265864;61;20379;-62
2021/12/12 04:43:07;0.00;0.00;0.62;0.00;0.00;0.62;6.37;5.10;;;19.40;24.20;;;;;;2265155;61;20360;-62
2021/12/12 04:46:08;0.00;0.00;0.62;0.00;0.00;0.62;6.27;5.67;;;19.30;24.20;;;;;;2265336;61;20625;-61
2021/12/12 04:52:03;0.00;0.00;0.62;0.00;0.00;0.62;9.27;5.87;;;19.30;24.20;;;;;;2265503;61;20424;-62
2021/12/12 04:55:00;0.00;0.00;0.62;0.00;0.00;0.62;7.87;5.47;;;19.30;24.20;;;;;;2265908;61;20365;-62
2021/12/12 04:57:50;0.00;0.00;0.62;0.00;0.00;0.62;6.90;5.10;;;19.20;24.20;;;;;;2265100;61;20357;-61
2021/12/12 05:00:42;0.00;0.00;0.62;0.00;0.00;0.62;8.40;6.10;;;19.20;24.20;;;;;;2265015;61;20500;-62
2021/12/12 05:03:39;0.00;0.00;0.62;0.00;0.00;0.62;6.50;4.70;;;19.20;24.20;;;;;;2266024;61;20356;-62
2021/12/12 05:06:28;0.00;0.00;0.62;0.00;0.00;0.62;9.73;5.50;;;19.10;24.20;;;;;;2265374;61;20404;-61
2021/12/12 05:09:20;0.00;0.00;0.62;0.00;0.00;0.62;7.03;5.40;;;19.10;24.20;;;;;;2265532;61;20580;-62
2021/12/12 05:12:15;0.00;0.00;0.62;0.00;0.00;0.62;5.63;5.00;;;19.10;24.30;;;;;;2265198;61;20478;-61
2021/12/12 05:15:09;0.00;0.00;0.62;0.00;0.00;0.62;5.30;4.67;;;19.10;24.30;;;;;;2265285;61;20717;-60
2021/12/12 05:17:58;0.00;0.00;0.62;0.00;0.00;0.62;5.43;4.87;;;19.10;24.40;;;;;;2265815;61;20373;-61
2021/12/12 05:20:48;0.00;0.00;0.62;0.00;0.00;0.62;7.07;5.30;;;19.10;24.40;;;;;;2264836;61;20427;-61
2021/12/12 05:23:34;0.00;0.00;0.62;0.00;0.00;0.62;6.93;5.00;;;19.10;24.40;;;;;;2265293;61;20358;-63
2021/12/12 05:26:26;0.00;0.00;0.62;0.00;0.00;0.62;9.73;4.90;;;19.10;24.40;;;;;;2265497;61;20724;-62
2021/12/12 05:29:17;0.00;0.00;0.62;0.00;0.00;0.62;5.30;4.40;;;19.00;24.30;;;;;;2265205;61;20361;-62
2021/12/12 05:32:07;0.00;0.00;0.62;0.00;0.00;0.62;6.80;4.80;;;19.00;24.40;;;;;;2265691;61;20439;-62
2021/12/12 05:34:54;0.00;0.00;0.62;0.00;0.00;0.62;7.33;5.03;;;19.00;24.30;;;;;;2264912;61;20445;-61
2021/12/12 05:37:39;0.00;0.00;0.62;0.00;0.00;0.62;5.13;4.57;;;19.00;24.90;;;;;;2265214;61;20376;-61
2021/12/12 05:40:29;0.00;0.00;0.62;0.00;0.00;0.62;6.10;4.67;;;19.00;24.40;;;;;;2265716;61;20361;-61
2021/12/12 05:43:16;0.00;0.00;0.62;0.00;0.00;0.62;9.30;4.50;;;19.00;24.40;;;;;;2265379;61;20410;-61
2021/12/12 05:46:02;0.00;0.00;0.62;0.00;0.00;0.62;5.47;4.97;;;19.00;24.40;;;;;;2265677;61;20728;-61
2021/12/12 05:48:49;0.00;0.00;0.62;0.00;0.00;0.62;5.30;4.80;;;19.00;24.40;;;;;;2264893;61;20361;-62
2021/12/12 05:51:35;0.00;0.00;0.62;0.00;0.00;0.62;5.40;4.50;;;19.00;24.40;;;;;;2265214;61;20389;-62
2021/12/12 05:54:22;0.00;0.00;0.62;0.00;0.00;0.62;6.23;4.63;;;19.00;24.40;;;;;;2266056;61;20428;-61
2021/12/12 05:57:09;0.00;0.00;0.62;0.00;0.00;0.62;6.70;3.90;;;19.00;24.30;;;;;;2264812;61;20440;-62
2021/12/12 05:59:58;0.00;0.00;0.62;0.00;0.00;0.62;6.27;4.73;;;18.90;24.30;;;;;;2265136;61;20583;-62
2021/12/12 06:02:44;0.00;0.00;0.62;0.00;0.00;0.62;4.93;3.80;;;19.00;24.40;;;;;;2265836;61;20728;-61
2021/12/12 06:05:31;0.00;0.00;0.62;0.00;0.00;0.62;5.60;4.00;;;18.90;24.40;;;;;;2265307;61;20625;-62
2021/12/12 06:08:17;0.00;0.00;0.62;0.00;0.00;0.62;5.03;3.53;;;18.90;24.40;;;;;;2265346;61;20357;-61
2021/12/12 06:11:02;0.00;0.00;0.62;0.00;0.00;0.62;4.77;3.60;;;18.90;24.40;;;;;;2264944;61;20601;-61
2021/12/12 06:13:47;0.00;0.00;0.62;0.00;0.00;0.62;6.07;4.03;;;18.90;24.40;;;;;;2265280;61;20353;-62
2021/12/12 06:16:36;0.00;0.00;0.62;0.00;0.00;0.62;6.80;3.80;;;18.90;24.40;;;;;;2265739;61;20371;-62
2021/12/12 06:19:23;0.00;0.00;0.62;0.00;0.00;0.62;4.60;3.60;;;18.90;24.40;;;;;;2264612;61;20361;-62
2021/12/12 06:22:09;0.00;0.00;0.62;0.00;0.00;0.62;3.90;3.13;;;18.90;24.40;;;;;;2265000;61;20787;-62
2021/12/12 06:24:54;0.00;0.00;0.62;0.00;0.00;0.62;4.20;3.10;;;18.90;24.40;;;;;;2265723;61;20615;-60
2021/12/12 06:27:41;0.00;0.00;0.62;0.00;0.00;0.62;5.10;2.90;;;18.90;24.40;;;;;;2265032;61;20361;-61
2021/12/12 06:30:26;0.00;0.00;0.62;0.00;0.00;0.62;4.07;3.17;;;18.90;24.40;;;;;;2267612;61;20803;-61
2021/12/12 06:33:13;0.00;0.00;0.62;0.00;0.00;0.62;4.17;3.40;;;18.90;24.40;;;;;;2264889;61;20392;-61
2021/12/12 06:35:59;0.00;0.00;0.62;0.00;0.00;0.62;7.10;3.90;;;18.90;24.40;;;;;;2265197;61;20573;-60
2021/12/12 06:38:46;0.00;0.00;0.62;0.00;0.00;0.62;4.23;3.37;;;18.90;24.40;;;;;;2265680;61;20365;-60
2021/12/12 06:41:31;0.00;0.00;0.62;0.00;0.00;0.62;4.80;3.53;;;18.80;24.30;;;;;;2264806;61;20452;-61
2021/12/12 06:44:17;0.00;0.00;0.62;0.00;0.00;0.62;5.60;3.20;;;18.80;24.30;;;;;;2265159;61;20393;-61
2021/12/12 06:47:02;0.00;0.00;0.62;0.00;0.00;0.62;4.50;3.70;;;18.80;24.30;;;;;;2266115;61;20357;-61
2021/12/12 06:49:49;0.00;0.00;0.62;0.00;0.00;0.62;4.10;3.23;;;18.80;24.40;;;;;;2265745;61;20379;-60
2021/12/12 06:52:35;0.00;0.00;0.62;0.00;0.00;0.62;5.00;3.27;;;18.80;24.40;;;;;;2265864;61;20385;-61
2021/12/12 06:55:21;0.00;0.00;0.62;0.00;0.00;0.62;5.73;3.63;;;18.80;24.40;;;;;;2262552;61;20392;-61
2021/12/12 06:58:07;0.00;0.00;0.62;0.00;0.00;0.62;4.33;3.60;;;18.80;24.30;;;;;;2265864;61;20361;-59
2021/12/12 07:00:58;0.00;0.00;0.62;0.00;0.00;0.62;6.23;3.87;;;18.80;24.40;;;;;;2263086;61;20408;-59
2021/12/12 07:03:46;0.00;0.00;0.62;0.00;0.00;0.62;5.20;3.50;;;18.70;24.30;;;;;;2265442;61;20620;-60
2021/12/12 07:06:32;0.00;0.00;0.62;0.00;0.00;0.62;4.80;3.23;;;18.80;24.40;;;;;;2265611;61;20590;-59
2021/12/12 07:09:17;0.00;0.00;0.62;0.00;0.00;0.62;4.70;4.00;;;18.70;24.40;;;;;;2266235;61;20364;-60
2021/12/12 07:12:08;0.00;0.00;0.62;0.00;0.00;0.62;5.50;3.30;;;18.70;24.50;;;;;;2265450;61;20389;-59
2021/12/12 07:14:54;0.00;0.00;0.62;0.00;0.00;0.62;4.73;4.00;;;18.70;24.50;;;;;;2265942;61;20356;-59
2021/12/12 07:17:40;0.00;0.00;0.62;0.00;0.00;0.62;8.33;3.87;;;18.70;24.50;;;;;;2265535;61;20423;-58
2021/12/12 07:20:25;0.00;0.00;0.62;0.00;0.00;0.62;5.23;3.80;;;18.70;24.50;;;;;;2265655;61;20399;-61
2021/12/12 07:23:13;0.00;0.00;0.62;0.00;0.00;0.62;4.83;3.43;;;18.60;24.50;;;;;;2266291;61;20724;-61
2021/12/12 07:25:59;0.00;0.00;0.62;0.00;0.00;0.62;4.40;4.00;;;18.60;24.50;;;;;;2265322;61;20747;-58
2021/12/12 07:28:47;0.00;0.00;0.62;0.00;0.00;0.62;5.10;3.77;;;18.60;24.60;;;;;;2265311;61;20369;-60
2021/12/12 07:31:35;0.00;0.00;0.62;0.00;0.00;0.62;5.63;4.30;;;18.50;24.50;;;;;;2266143;61;20495;-60
2021/12/12 07:34:19;0.00;0.00;0.62;0.00;0.00;0.62;7.00;4.27;;;18.50;24.50;;;;;;2265678;61;20400;-59
2021/12/12 07:37:08;0.00;0.00;0.62;0.00;0.00;0.62;7.77;4.93;;;18.50;24.50;;;;;;2265921;61;20704;-59
2021/12/12 07:39:54;0.00;0.00;0.62;0.00;0.00;0.62;6.73;4.53;;;18.50;24.50;;;;;;2267676;61;20426;-60
2021/12/12 07:42:40;0.00;0.00;0.62;0.00;0.00;0.62;6.87;5.47;;;18.50;24.50;;;;;;2265693;61;20376;-59
2021/12/12 07:45:25;0.00;0.00;0.62;0.00;0.00;0.62;7.97;5.03;;;18.40;24.40;;;;;;2266233;61;20392;-60
2021/12/12 07:48:12;0.00;0.00;0.62;0.00;0.00;0.62;8.30;5.40;;;18.40;24.40;;;;;;2265134;61;20364;-60
2021/12/12 07:50:57;0.00;0.00;0.62;0.00;0.00;0.62;8.50;5.07;;;18.30;24.40;;;;;;2265383;61;20393;-60
2021/12/12 07:53:42;0.00;0.00;0.62;0.00;0.00;0.62;7.27;5.10;;;18.30;24.40;;;;;;2266070;61;20360;-61
2021/12/12 07:56:32;0.00;0.00;0.62;0.00;0.00;0.62;7.17;5.03;;;18.30;24.40;;;;;;2265240;61;20361;-61
2021/12/12 07:59:19;0.00;0.00;0.62;0.00;0.00;0.62;5.50;4.80;;;18.30;24.40;;;;;;2265186;61;20707;-57
2021/12/12 08:02:06;0.00;0.00;0.62;0.00;0.00;0.62;9.47;5.30;;;18.20;24.40;;;;;;2265309;61;20431;-61
2021/12/12 08:04:54;0.00;0.00;0.62;0.00;0.00;0.62;8.77;5.10;;;18.20;24.40;;;;;;2265539;61;20403;-61
2021/12/12 08:07:40;0.00;0.00;0.62;0.00;0.00;0.62;7.13;5.60;;;18.10;24.40;;;;;;2266268;61;20396;-62
2021/12/12 08:10:25;0.00;0.00;0.62;0.00;0.00;0.62;7.47;5.33;;;18.10;24.40;;;;;;2265298;61;20511;-61
2021/12/12 08:13:19;0.00;0.00;0.62;0.00;0.00;0.62;5.67;5.07;;;18.10;24.50;;;;;;2265603;61;20361;-61
2021/12/12 08:16:09;0.00;0.00;0.62;0.00;0.00;0.62;5.77;4.90;;;18.00;24.50;;;;;;2265806;61;20431;-60
2021/12/12 08:18:56;0.00;0.00;0.62;0.00;0.00;0.62;5.93;5.00;;;18.00;24.50;;;;;;2265648;61;20373;-59
2021/12/12 08:21:41;0.00;0.00;0.62;0.00;0.00;0.62;8.70;4.93;;;18.00;24.50;;;;;;2265915;61;20381;-60
2021/12/12 08:24:26;0.00;0.00;0.62;0.00;0.00;0.62;6.57;4.97;;;18.00;24.60;;;;;;2265817;61;20392;-59
2021/12/12 08:27:12;0.00;0.00;0.62;0.00;0.00;0.62;5.10;4.20;;;18.00;24.70;;;;;;2265434;61;20435;-56
2021/12/12 08:29:59;0.00;0.00;0.62;0.00;0.00;0.62;5.80;4.17;;;18.00;24.70;;;;;;2265948;61;20411;-60
2021/12/12 08:32:48;0.00;0.00;0.62;0.00;0.00;0.62;5.20;4.70;;;18.00;24.80;;;;;;2265646;61;20361;-60
2021/12/12 08:35:33;0.00;0.00;0.62;0.00;0.00;0.62;6.20;5.30;;;18.00;24.80;;;;;;2265434;61;20380;-62
2021/12/12 08:38:19;0.00;0.00;0.62;0.00;0.00;0.62;8.30;4.50;;;18.00;24.80;;;;;;2268019;61;20433;-60
2021/12/12 08:41:06;0.00;0.00;0.62;0.00;0.00;0.62;5.57;4.67;;;18.00;24.80;;;;;;2264052;61;20381;-59
2021/12/12 08:43:51;0.00;0.00;0.62;0.00;0.00;0.62;8.00;5.03;;;18.00;24.90;;;;;;2265722;61;20377;-60
2021/12/12 08:46:39;0.00;0.00;0.62;0.00;0.00;0.62;5.87;4.33;;;18.10;25.00;;;;;;2265596;61;20373;-60
2021/12/12 08:49:29;0.00;0.00;0.62;0.00;0.00;0.62;5.57;4.40;;;18.10;25.00;;;;;;2265113;61;20365;-61
2021/12/12 08:52:20;0.00;0.00;0.62;0.00;0.00;0.62;7.43;5.83;;;18.00;25.00;;;;;;2265891;61;20511;-61
2021/12/12 08:55:13;0.00;0.00;0.62;0.00;0.00;0.62;4.93;4.43;;;18.00;25.00;;;;;;2265073;61;20616;-61
2021/12/12 08:58:19;0.00;0.00;0.62;0.00;0.00;0.62;6.10;5.07;;;18.00;25.00;;;;;;2265514;61;20407;-60
2021/12/12 09:01:10;0.00;0.00;0.62;0.00;0.00;0.62;5.60;4.97;;;18.00;25.00;;;;;;2265538;61;20419;-60
2021/12/12 09:04:01;0.00;0.00;0.62;0.00;0.00;0.62;5.67;4.27;;;18.00;25.10;;;;;;2265154;61;20403;-61
2021/12/12 09:06:55;0.00;0.00;0.62;0.00;0.00;0.62;6.43;5.10;;;18.00;25.20;;;;;;2262563;61;20365;-60
2021/12/12 09:09:44;0.00;0.00;0.62;0.00;0.00;0.62;5.80;4.80;;;18.00;25.20;;;;;;2264831;61;20591;-60
2021/12/12 09:12:36;0.00;0.00;0.62;0.00;0.00;0.62;5.37;4.80;;;18.00;25.20;;;;;;2265096;61;20600;-59
2021/12/12 09:15:26;0.00;0.00;0.62;0.00;0.00;0.62;4.90;3.80;;;18.00;25.20;;;;;;2265638;61;20349;-60
2021/12/12 09:18:17;0.00;0.00;0.62;0.00;0.00;0.62;4.77;3.47;;;18.00;25.20;;;;;;2264822;61;20368;-61
2021/12/12 09:21:10;0.00;0.00;0.62;0.00;0.00;0.62;5.13;3.90;;;18.00;25.20;;;;;;2265533;61;20431;-60
2021/12/12 09:24:06;0.00;0.00;0.62;0.00;0.00;0.62;4.90;3.70;;;18.00;25.20;;;;;;2497240;53;20350;-61
2021/12/12 09:26:54;0.00;0.00;0.62;0.00;0.00;0.62;3.57;3.13;;;18.00;25.20;;;;;;2261092;61;20358;-60
2021/12/12 09:29:50;0.00;0.00;0.62;0.00;0.00;0.62;3.30;2.90;;;18.00;25.20;;;;;;2264364;61;20453;-61
2021/12/12 09:32:41;0.00;0.00;0.62;0.00;0.00;0.62;4.77;2.90;;;18.00;25.20;;;;;;2265314;61;20415;-60
2021/12/12 09:35:31;0.00;0.00;0.62;0.00;0.00;0.62;4.20;2.73;;;18.10;25.30;;;;;;2265555;61;20353;-60
2021/12/12 09:38:25;0.00;0.00;0.62;0.00;0.00;0.62;4.17;2.97;;;18.10;25.30;;;;;;2265427;61;20372;-60
2021/12/12 09:41:30;0.00;0.00;0.62;0.00;0.00;0.62;3.37;3.07;;;18.20;25.30;;;;;;2264786;61;20381;-61
2021/12/12 09:44:43;0.00;0.00;0.62;0.00;0.00;0.62;4.10;2.70;;;18.20;25.30;;;;;;2265829;61;20405;-61
2021/12/12 09:48:00;0.00;0.00;0.62;0.00;0.00;0.62;3.70;3.20;;;18.20;25.30;;;;;;2265171;61;20357;-61
2021/12/12 09:51:14;0.00;0.00;0.62;0.00;0.00;0.62;5.60;4.30;;;18.20;25.30;;;;;;2265461;61;20610;-61
2021/12/12 09:54:37;0.00;0.00;0.62;0.00;0.00;0.62;7.23;5.23;;;18.30;25.40;;;;;;2264914;61;20357;-61
2021/12/12 09:57:31;0.00;0.00;0.62;0.00;0.00;0.62;10.40;6.13;;;18.30;25.40;;;;;;2265211;61;20384;-61
2021/12/12 10:00:26;0.00;0.00;0.62;0.00;0.00;0.62;12.60;6.60;;;18.40;25.80;;;;;;2265112;61;20377;-61
2021/12/12 10:03:21;0.00;0.00;0.62;0.00;0.00;0.62;9.40;5.90;;;18.40;26.00;;;;;;2264923;61;20361;-60
2021/12/12 10:06:15;0.00;0.00;0.62;0.00;0.00;0.62;8.50;5.70;;;18.50;26.10;;;;;;2265752;61;20430;-61
2021/12/12 10:09:07;0.00;0.00;0.62;0.00;0.00;0.62;12.13;6.50;;;18.50;26.10;;;;;;2264670;61;20362;-61
2021/12/12 10:12:01;0.00;0.00;0.62;0.00;0.00;0.62;9.57;6.30;;;18.50;26.10;;;;;;2265082;61;20412;-61
2021/12/12 10:14:53;0.00;0.00;0.62;0.00;0.00;0.62;9.40;6.27;;;18.60;26.20;;;;;;2265548;61;20578;-61
2021/12/12 10:17:44;0.00;0.00;0.62;0.00;0.00;0.62;9.77;6.10;;;18.60;26.30;;;;;;2264357;61;20452;-61
2021/12/12 10:20:34;0.00;0.00;0.62;0.00;0.00;0.62;6.33;4.90;;;18.70;26.30;;;;;;2264182;61;20369;-61
2021/12/12 10:23:35;0.00;0.00;0.62;0.00;0.00;0.62;6.90;5.10;;;18.70;26.40;;;;;;2265279;61;20373;-61
2021/12/12 10:26:26;0.00;0.00;0.62;0.00;0.00;0.62;8.37;5.70;;;18.70;26.30;;;;;;2264987;61;20380;-61
2021/12/12 10:29:19;0.00;0.00;0.62;0.00;0.00;0.62;6.97;4.40;;;18.80;26.40;;;;;;2265360;61;20480;-61
2021/12/12 10:32:12;0.00;0.00;0.62;0.00;0.00;0.62;8.80;4.87;;;18.80;26.30;;;;;;2265254;61;20439;-61
2021/12/12 10:35:05;0.00;0.00;0.62;0.00;0.00;0.62;6.40;4.00;;;18.80;26.40;;;;;;2264674;61;20745;-61
2021/12/12 10:37:57;0.00;0.00;0.62;0.00;0.00;0.62;10.20;5.30;;;18.90;26.50;;;;;;2265077;61;20430;-62
2021/12/12 10:40:51;0.00;0.00;0.62;0.00;0.00;0.62;5.53;3.90;;;18.90;26.50;;;;;;2264887;61;20419;-61
2021/12/12 10:43:41;0.00;0.00;0.62;0.00;0.00;0.62;7.63;4.00;;;18.90;26.40;;;;;;2265764;61;20357;-62
2021/12/12 10:46:38;0.00;0.00;0.62;0.00;0.00;0.62;4.93;3.50;;;19.00;26.50;;;;;;2265279;61;20760;-62
2021/12/12 10:49:31;0.00;0.00;0.62;0.00;0.00;0.62;5.53;3.50;;;19.00;26.50;;;;;;2264872;61;20361;-61
2021/12/12 10:52:25;0.00;0.00;0.62;0.00;0.00;0.62;4.83;3.67;;;19.00;26.50;;;;;;2265223;61;20389;-61
2021/12/12 10:55:17;0.00;0.00;0.62;0.00;0.00;0.62;5.47;3.60;;;19.00;26.50;;;;;;2265010;61;20361;-61
2021/12/12 10:58:16;0.00;0.00;0.62;0.00;0.00;0.62;5.70;3.93;;;19.10;26.50;;;;;;2265667;61;20400;-59
2021/12/12 11:01:07;0.00;0.00;0.62;0.00;0.00;0.62;4.23;3.07;;;19.10;26.50;;;;;;2264743;61;20376;-61
2021/12/12 11:04:03;0.00;0.00;0.62;0.00;0.00;0.62;3.90;2.40;;;19.20;26.50;;;;;;2264756;61;20358;-62
2021/12/12 11:06:58;0.00;0.00;0.62;0.00;0.00;0.62;6.50;2.93;;;19.20;26.50;;;;;;2265101;61;20365;-61
2021/12/12 11:09:51;0.00;0.00;0.62;0.00;0.00;0.62;4.97;2.70;;;19.20;26.50;;;;;;2264919;61;20377;-61
2021/12/12 11:12:42;0.00;0.00;0.62;0.00;0.00;0.62;3.10;2.80;;;19.20;26.50;;;;;;2265382;61;20650;-61
2021/12/12 11:15:35;0.00;0.00;0.62;0.00;0.00;0.62;4.90;2.73;;;19.30;26.50;;;;;;2265080;61;20630;-62
2021/12/12 11:18:27;0.00;0.00;0.62;0.00;0.00;0.62;5.50;3.13;;;19.30;26.50;;;;;;2264501;61;20373;-62
2021/12/12 11:21:20;0.00;0.00;0.62;0.00;0.00;0.62;3.57;2.47;;;19.30;26.40;;;;;;2265181;61;20376;-61
2021/12/12 11:24:11;0.00;0.00;0.62;0.00;0.00;0.62;3.23;2.33;;;19.30;26.40;;;;;;2264923;61;20377;-61
2021/12/12 11:27:01;0.00;0.00;0.62;0.00;0.00;0.62;5.30;3.03;;;19.30;26.40;;;;;;2264935;61;20479;-61